Terminal Aerodrome Forecast
Issued by NWS Wilmington, NC

Home | Current Version | Previous Version | Text Only | Print | Product List | Glossary On
Versions: 1 2 3 4 5 6 7 8 9 10 11 12 13 14 15 16 17 18 19
000
FTUS42 KILM 300552 CCA
TAFLBT
TAF COR
KLBT 300552Z 3006/3106 VRB03KT P6SM VCTS BKN070CB
      TEMPO 3006/3009 3SM -TSRA BKN025CB
     FM301100 VRB03KT P6SM BKN070
     FM301600 27008KT P6SM SCT040 BKN150
     FM310000 VRB03KT P6SM BKN120=

USA.gov is the U.S. government's official web portal to all federal, state and local government web resources and services.